sensor_id;sensor_type;location;lat;lon;timestamp;temperature;humidity
72484;DHT22;74199;52.014;5.430;2024-02-28T00:01:03;19.50;42.50
72484;DHT22;74199;52.014;5.430;2024-02-28T00:03:30;19.50;42.40
72484;DHT22;74199;52.014;5.430;2024-02-28T00:05:58;19.60;42.40
72484;DHT22;74199;52.014;5.430;2024-02-28T00:08:25;19.60;42.40
72484;DHT22;74199;52.014;5.430;2024-02-28T00:10:52;19.60;42.40
72484;DHT22;74199;52.014;5.430;2024-02-28T00:13:21;19.60;42.30
72484;DHT22;74199;52.014;5.430;2024-02-28T00:15:49;19.70;42.30
72484;DHT22;74199;52.014;5.430;2024-02-28T00:18:16;19.70;42.20
72484;DHT22;74199;52.014;5.430;2024-02-28T00:20:46;19.70;42.20
72484;DHT22;74199;52.014;5.430;2024-02-28T00:23:13;19.80;42.20
72484;DHT22;74199;52.014;5.430;2024-02-28T00:25:40;19.80;42.10
72484;DHT22;74199;52.014;5.430;2024-02-28T00:28:07;19.80;42.00
72484;DHT22;74199;52.014;5.430;2024-02-28T00:30:35;19.80;42.00
72484;DHT22;74199;52.014;5.430;2024-02-28T00:33:02;19.90;42.00
72484;DHT22;74199;52.014;5.430;2024-02-28T00:35:32;19.90;41.90
72484;DHT22;74199;52.014;5.430;2024-02-28T00:38:05;19.90;41.90
72484;DHT22;74199;52.014;5.430;2024-02-28T00:40:32;19.90;41.80
72484;DHT22;74199;52.014;5.430;2024-02-28T00:42:58;19.90;41.90
72484;DHT22;74199;52.014;5.430;2024-02-28T00:45:25;19.90;41.80
72484;DHT22;74199;52.014;5.430;2024-02-28T00:47:52;20.00;41.80
72484;DHT22;74199;52.014;5.430;2024-02-28T00:50:21;20.00;41.70
72484;DHT22;74199;52.014;5.430;2024-02-28T00:52:48;20.00;41.70
72484;DHT22;74199;52.014;5.430;2024-02-28T00:55:15;20.00;41.60
72484;DHT22;74199;52.014;5.430;2024-02-28T00:57:42;20.00;41.60
72484;DHT22;74199;52.014;5.430;2024-02-28T01:00:10;20.00;41.60
72484;DHT22;74199;52.014;5.430;2024-02-28T01:02:40;20.00;41.60
72484;DHT22;74199;52.014;5.430;2024-02-28T01:05:10;20.00;41.50
72484;DHT22;74199;52.014;5.430;2024-02-28T01:07:37;20.10;41.50
72484;DHT22;74199;52.014;5.430;2024-02-28T01:10:04;20.10;41.40
72484;DHT22;74199;52.014;5.430;2024-02-28T01:12:31;20.10;41.40
72484;DHT22;74199;52.014;5.430;2024-02-28T01:14:59;20.10;41.30
72484;DHT22;74199;52.014;5.430;2024-02-28T01:17:26;20.20;41.30
72484;DHT22;74199;52.014;5.430;2024-02-28T01:19:53;20.20;41.30
72484;DHT22;74199;52.014;5.430;2024-02-28T01:22:20;20.20;41.20
72484;DHT22;74199;52.014;5.430;2024-02-28T01:24:47;20.20;41.20
72484;DHT22;74199;52.014;5.430;2024-02-28T01:27:14;20.30;41.20
72484;DHT22;74199;52.014;5.430;2024-02-28T01:29:41;20.30;41.10
72484;DHT22;74199;52.014;5.430;2024-02-28T01:32:07;20.30;41.00
72484;DHT22;74199;52.014;5.430;2024-02-28T01:34:34;20.30;41.00
72484;DHT22;74199;52.014;5.430;2024-02-28T01:37:01;20.40;41.00
72484;DHT22;74199;52.014;5.430;2024-02-28T01:39:28;20.40;40.90
72484;DHT22;74199;52.014;5.430;2024-02-28T01:41:55;20.40;40.90
72484;DHT22;74199;52.014;5.430;2024-02-28T01:44:24;20.50;40.90
72484;DHT22;74199;52.014;5.430;2024-02-28T01:46:51;20.50;40.80
72484;DHT22;74199;52.014;5.430;2024-02-28T01:49:18;20.50;40.80
72484;DHT22;74199;52.014;5.430;2024-02-28T01:51:46;20.50;40.70
72484;DHT22;74199;52.014;5.430;2024-02-28T01:54:14;20.60;40.70
72484;DHT22;74199;52.014;5.430;2024-02-28T01:56:42;20.60;40.60
72484;DHT22;74199;52.014;5.430;2024-02-28T01:59:13;20.60;40.60
72484;DHT22;74199;52.014;5.430;2024-02-28T02:01:40;20.70;40.60
72484;DHT22;74199;52.014;5.430;2024-02-28T02:04:08;20.70;40.50
72484;DHT22;74199;52.014;5.430;2024-02-28T02:06:37;20.70;40.50
72484;DHT22;74199;52.014;5.430;2024-02-28T02:09:05;20.70;40.40
72484;DHT22;74199;52.014;5.430;2024-02-28T02:11:32;20.70;40.50
72484;DHT22;74199;52.014;5.430;2024-02-28T02:13:59;20.70;40.40
72484;DHT22;74199;52.014;5.430;2024-02-28T02:16:26;20.80;40.40
72484;DHT22;74199;52.014;5.430;2024-02-28T02:18:53;20.80;40.30
72484;DHT22;74199;52.014;5.430;2024-02-28T02:21:24;20.80;40.40
72484;DHT22;74199;52.014;5.430;2024-02-28T02:23:53;20.80;40.30
72484;DHT22;74199;52.014;5.430;2024-02-28T02:26:20;20.80;40.40
72484;DHT22;74199;52.014;5.430;2024-02-28T02:28:47;20.80;40.30
72484;DHT22;74199;52.014;5.430;2024-02-28T02:31:14;20.80;40.30
72484;DHT22;74199;52.014;5.430;2024-02-28T02:33:41;20.80;40.30
72484;DHT22;74199;52.014;5.430;2024-02-28T02:36:08;20.80;40.30
72484;DHT22;74199;52.014;5.430;2024-02-28T02:38:35;20.80;40.30
72484;DHT22;74199;52.014;5.430;2024-02-28T02:41:02;20.80;40.20
72484;DHT22;74199;52.014;5.430;2024-02-28T02:43:29;20.80;40.20
72484;DHT22;74199;52.014;5.430;2024-02-28T02:45:56;20.80;40.20
72484;DHT22;74199;52.014;5.430;2024-02-28T02:48:23;20.80;40.20
72484;DHT22;74199;52.014;5.430;2024-02-28T02:50:50;20.80;40.20
72484;DHT22;74199;52.014;5.430;2024-02-28T02:53:17;20.80;40.10
72484;DHT22;74199;52.014;5.430;2024-02-28T02:55:44;20.80;40.10
72484;DHT22;74199;52.014;5.430;2024-02-28T02:58:11;20.80;40.10
72484;DHT22;74199;52.014;5.430;2024-02-28T03:00:38;20.80;40.00
72484;DHT22;74199;52.014;5.430;2024-02-28T03:03:05;20.80;40.10
72484;DHT22;74199;52.014;5.430;2024-02-28T03:05:32;20.80;40.10
72484;DHT22;74199;52.014;5.430;2024-02-28T03:07:59;20.80;40.00
72484;DHT22;74199;52.014;5.430;2024-02-28T03:10:26;20.80;40.00
72484;DHT22;74199;52.014;5.430;2024-02-28T03:12:53;20.80;40.00
72484;DHT22;74199;52.014;5.430;2024-02-28T03:15:20;20.80;40.00
72484;DHT22;74199;52.014;5.430;2024-02-28T03:17:47;20.80;40.00
72484;DHT22;74199;52.014;5.430;2024-02-28T03:20:14;20.80;40.00
72484;DHT22;74199;52.014;5.430;2024-02-28T03:22:41;20.80;39.90
72484;DHT22;74199;52.014;5.430;2024-02-28T03:25:08;20.80;39.80
72484;DHT22;74199;52.014;5.430;2024-02-28T03:27:35;20.80;39.80
72484;DHT22;74199;52.014;5.430;2024-02-28T03:30:03;20.80;39.80
72484;DHT22;74199;52.014;5.430;2024-02-28T03:32:30;20.80;39.80
72484;DHT22;74199;52.014;5.430;2024-02-28T03:34:58;20.80;39.70
72484;DHT22;74199;52.014;5.430;2024-02-28T03:37:25;20.80;39.70
72484;DHT22;74199;52.014;5.430;2024-02-28T03:39:52;20.80;39.60
72484;DHT22;74199;52.014;5.430;2024-02-28T03:42:20;20.80;39.60
72484;DHT22;74199;52.014;5.430;2024-02-28T03:44:48;20.80;39.60
72484;DHT22;74199;52.014;5.430;2024-02-28T03:47:15;20.80;39.50
72484;DHT22;74199;52.014;5.430;2024-02-28T03:49:42;20.90;39.50
72484;DHT22;74199;52.014;5.430;2024-02-28T03:52:08;20.90;39.50
72484;DHT22;74199;52.014;5.430;2024-02-28T03:54:35;20.90;39.50
72484;DHT22;74199;52.014;5.430;2024-02-28T03:57:02;20.80;39.50
72484;DHT22;74199;52.014;5.430;2024-02-28T03:59:29;20.80;39.50
72484;DHT22;74199;52.014;5.430;2024-02-28T04:01:56;20.80;39.50
72484;DHT22;74199;52.014;5.430;2024-02-28T04:04:23;20.80;39.40
72484;DHT22;74199;52.014;5.430;2024-02-28T04:06:50;20.80;39.40
72484;DHT22;74199;52.014;5.430;2024-02-28T04:09:17;20.80;39.40
72484;DHT22;74199;52.014;5.430;2024-02-28T04:11:44;20.80;39.40
72484;DHT22;74199;52.014;5.430;2024-02-28T04:14:11;20.80;39.30
72484;DHT22;74199;52.014;5.430;2024-02-28T04:16:42;20.80;39.30
72484;DHT22;74199;52.014;5.430;2024-02-28T04:19:11;20.80;39.40
72484;DHT22;74199;52.014;5.430;2024-02-28T04:21:38;20.90;39.40
72484;DHT22;74199;52.014;5.430;2024-02-28T04:24:08;20.90;39.40
72484;DHT22;74199;52.014;5.430;2024-02-28T04:26:36;20.90;39.30
72484;DHT22;74199;52.014;5.430;2024-02-28T04:29:03;20.90;39.40
72484;DHT22;74199;52.014;5.430;2024-02-28T04:31:31;20.90;39.40
72484;DHT22;74199;52.014;5.430;2024-02-28T04:33:58;20.90;39.50
72484;DHT22;74199;52.014;5.430;2024-02-28T04:36:26;20.90;39.40
72484;DHT22;74199;52.014;5.430;2024-02-28T04:38:53;20.90;39.40
72484;DHT22;74199;52.014;5.430;2024-02-28T04:41:19;20.90;39.40
72484;DHT22;74199;52.014;5.430;2024-02-28T04:43:46;20.90;39.50
72484;DHT22;74199;52.014;5.430;2024-02-28T04:46:13;20.90;39.50
72484;DHT22;74199;52.014;5.430;2024-02-28T04:48:40;20.90;39.50
72484;DHT22;74199;52.014;5.430;2024-02-28T04:51:07;20.80;39.50
72484;DHT22;74199;52.014;5.430;2024-02-28T04:53:34;20.80;39.60
72484;DHT22;74199;52.014;5.430;2024-02-28T04:56:01;20.80;39.50
72484;DHT22;74199;52.014;5.430;2024-02-28T04:58:28;20.80;39.50
72484;DHT22;74199;52.014;5.430;2024-02-28T05:00:55;20.80;39.60
72484;DHT22;74199;52.014;5.430;2024-02-28T05:03:22;20.80;39.60
72484;DHT22;74199;52.014;5.430;2024-02-28T05:05:51;20.80;39.60
72484;DHT22;74199;52.014;5.430;2024-02-28T05:08:21;20.80;39.60
72484;DHT22;74199;52.014;5.430;2024-02-28T05:10:49;20.80;39.70
72484;DHT22;74199;52.014;5.430;2024-02-28T05:13:17;20.80;39.60
72484;DHT22;74199;52.014;5.430;2024-02-28T05:15:44;20.80;39.60
72484;DHT22;74199;52.014;5.430;2024-02-28T05:18:11;20.80;39.60
72484;DHT22;74199;52.014;5.430;2024-02-28T05:20:38;20.80;39.60
72484;DHT22;74199;52.014;5.430;2024-02-28T05:23:05;20.80;39.60
72484;DHT22;74199;52.014;5.430;2024-02-28T05:25:32;20.80;39.60
72484;DHT22;74199;52.014;5.430;2024-02-28T05:27:58;20.80;39.60
72484;DHT22;74199;52.014;5.430;2024-02-28T05:30:25;20.80;39.70
72484;DHT22;74199;52.014;5.430;2024-02-28T05:32:52;20.80;39.70
72484;DHT22;74199;52.014;5.430;2024-02-28T05:35:19;20.80;39.70
72484;DHT22;74199;52.014;5.430;2024-02-28T05:37:46;20.80;39.70
72484;DHT22;74199;52.014;5.430;2024-02-28T05:40:13;20.80;39.70
72484;DHT22;74199;52.014;5.430;2024-02-28T05:42:40;20.80;39.70
72484;DHT22;74199;52.014;5.430;2024-02-28T05:45:08;20.80;39.70
72484;DHT22;74199;52.014;5.430;2024-02-28T05:47:35;20.90;39.80
72484;DHT22;74199;52.014;5.430;2024-02-28T05:50:02;20.80;39.80
72484;DHT22;74199;52.014;5.430;2024-02-28T05:52:29;20.90;39.70
72484;DHT22;74199;52.014;5.430;2024-02-28T05:54:56;20.90;39.80
72484;DHT22;74199;52.014;5.430;2024-02-28T05:57:23;20.90;39.90
72484;DHT22;74199;52.014;5.430;2024-02-28T05:59:50;20.90;39.90
72484;DHT22;74199;52.014;5.430;2024-02-28T06:02:17;20.90;39.90
72484;DHT22;74199;52.014;5.430;2024-02-28T06:04:44;20.90;39.90
72484;DHT22;74199;52.014;5.430;2024-02-28T06:07:14;20.90;39.90
72484;DHT22;74199;52.014;5.430;2024-02-28T06:09:41;20.90;39.80
72484;DHT22;74199;52.014;5.430;2024-02-28T06:12:08;21.00;39.80
72484;DHT22;74199;52.014;5.430;2024-02-28T06:14:35;21.00;39.80
72484;DHT22;74199;52.014;5.430;2024-02-28T06:17:01;21.00;39.90
72484;DHT22;74199;52.014;5.430;2024-02-28T06:19:28;21.00;39.80
72484;DHT22;74199;52.014;5.430;2024-02-28T06:21:55;21.00;39.70
72484;DHT22;74199;52.014;5.430;2024-02-28T06:24:22;21.00;39.80
72484;DHT22;74199;52.014;5.430;2024-02-28T06:26:49;21.00;39.80
72484;DHT22;74199;52.014;5.430;2024-02-28T06:29:16;21.00;39.80
72484;DHT22;74199;52.014;5.430;2024-02-28T06:31:43;21.00;39.70
72484;DHT22;74199;52.014;5.430;2024-02-28T06:34:10;21.00;39.70
72484;DHT22;74199;52.014;5.430;2024-02-28T06:36:40;21.00;39.80
72484;DHT22;74199;52.014;5.430;2024-02-28T06:39:08;21.00;39.80
72484;DHT22;74199;52.014;5.430;2024-02-28T06:41:35;21.00;39.80
72484;DHT22;74199;52.014;5.430;2024-02-28T06:44:02;21.00;39.70
72484;DHT22;74199;52.014;5.430;2024-02-28T06:46:29;21.00;39.80
72484;DHT22;74199;52.014;5.430;2024-02-28T06:48:56;21.00;39.80
72484;DHT22;74199;52.014;5.430;2024-02-28T06:51:23;21.00;39.80
72484;DHT22;74199;52.014;5.430;2024-02-28T06:53:50;21.00;39.90
72484;DHT22;74199;52.014;5.430;2024-02-28T06:56:16;21.00;39.80
72484;DHT22;74199;52.014;5.430;2024-02-28T06:58:43;21.00;39.90
72484;DHT22;74199;52.014;5.430;2024-02-28T07:01:10;20.90;39.80
72484;DHT22;74199;52.014;5.430;2024-02-28T07:03:37;21.00;39.80
72484;DHT22;74199;52.014;5.430;2024-02-28T07:06:04;20.90;39.90
72484;DHT22;74199;52.014;5.430;2024-02-28T07:08:32;20.90;39.90
72484;DHT22;74199;52.014;5.430;2024-02-28T07:10:59;21.00;39.90
72484;DHT22;74199;52.014;5.430;2024-02-28T07:13:26;21.00;39.90
72484;DHT22;74199;52.014;5.430;2024-02-28T07:15:53;21.00;39.80
72484;DHT22;74199;52.014;5.430;2024-02-28T07:18:21;21.00;39.90
72484;DHT22;74199;52.014;5.430;2024-02-28T07:20:50;21.00;39.80
72484;DHT22;74199;52.014;5.430;2024-02-28T07:23:18;21.00;39.90
72484;DHT22;74199;52.014;5.430;2024-02-28T07:25:45;20.90;39.90
72484;DHT22;74199;52.014;5.430;2024-02-28T07:28:12;20.90;39.90
72484;DHT22;74199;52.014;5.430;2024-02-28T07:30:39;21.00;40.00
72484;DHT22;74199;52.014;5.430;2024-02-28T07:33:06;21.00;40.00
72484;DHT22;74199;52.014;5.430;2024-02-28T07:35:46;21.00;39.90
72484;DHT22;74199;52.014;5.430;2024-02-28T07:38:13;21.00;40.00
72484;DHT22;74199;52.014;5.430;2024-02-28T07:40:40;21.00;40.00
72484;DHT22;74199;52.014;5.430;2024-02-28T07:43:08;20.90;39.90
72484;DHT22;74199;52.014;5.430;2024-02-28T07:45:35;20.90;39.90
72484;DHT22;74199;52.014;5.430;2024-02-28T07:48:01;20.90;40.00
72484;DHT22;74199;52.014;5.430;2024-02-28T07:50:29;20.90;40.00
72484;DHT22;74199;52.014;5.430;2024-02-28T07:52:55;20.90;39.90
72484;DHT22;74199;52.014;5.430;2024-02-28T07:55:22;20.90;40.00
72484;DHT22;74199;52.014;5.430;2024-02-28T07:57:53;20.90;40.00
72484;DHT22;74199;52.014;5.430;2024-02-28T08:00:20;20.90;40.00
72484;DHT22;74199;52.014;5.430;2024-02-28T08:02:47;20.90;40.00
72484;DHT22;74199;52.014;5.430;2024-02-28T08:05:14;20.90;40.10
72484;DHT22;74199;52.014;5.430;2024-02-28T08:07:42;20.90;40.00
72484;DHT22;74199;52.014;5.430;2024-02-28T08:10:09;20.90;40.00
72484;DHT22;74199;52.014;5.430;2024-02-28T08:12:38;20.90;40.00
72484;DHT22;74199;52.014;5.430;2024-02-28T08:15:05;20.90;40.20
72484;DHT22;74199;52.014;5.430;2024-02-28T08:17:32;20.90;40.20
72484;DHT22;74199;52.014;5.430;2024-02-28T08:19:59;20.90;40.30
72484;DHT22;74199;52.014;5.430;2024-02-28T08:22:26;20.90;40.30
72484;DHT22;74199;52.014;5.430;2024-02-28T08:24:53;20.80;40.40
72484;DHT22;74199;52.014;5.430;2024-02-28T08:27:20;20.80;40.40
72484;DHT22;74199;52.014;5.430;2024-02-28T08:29:47;20.80;40.40
72484;DHT22;74199;52.014;5.430;2024-02-28T08:32:14;20.80;40.40
72484;DHT22;74199;52.014;5.430;2024-02-28T08:34:44;20.80;40.40
72484;DHT22;74199;52.014;5.430;2024-02-28T08:37:14;20.80;40.40
72484;DHT22;74199;52.014;5.430;2024-02-28T08:39:41;20.80;40.50
72484;DHT22;74199;52.014;5.430;2024-02-28T08:42:08;20.80;40.40
72484;DHT22;74199;52.014;5.430;2024-02-28T08:44:35;20.80;40.50
72484;DHT22;74199;52.014;5.430;2024-02-28T08:47:02;20.80;40.70
72484;DHT22;74199;52.014;5.430;2024-02-28T08:49:29;20.80;40.70
72484;DHT22;74199;52.014;5.430;2024-02-28T08:51:57;20.80;40.60
72484;DHT22;74199;52.014;5.430;2024-02-28T08:54:24;20.90;40.60
72484;DHT22;74199;52.014;5.430;2024-02-28T08:56:52;20.90;40.50
72484;DHT22;74199;52.014;5.430;2024-02-28T08:59:29;20.90;40.60
72484;DHT22;74199;52.014;5.430;2024-02-28T09:01:56;20.90;40.50
72484;DHT22;74199;52.014;5.430;2024-02-28T09:04:23;20.90;40.50
72484;DHT22;74199;52.014;5.430;2024-02-28T09:06:49;20.90;40.50
72484;DHT22;74199;52.014;5.430;2024-02-28T09:09:16;20.90;40.50
72484;DHT22;74199;52.014;5.430;2024-02-28T09:11:43;20.90;40.50
72484;DHT22;74199;52.014;5.430;2024-02-28T09:14:10;20.90;40.50
72484;DHT22;74199;52.014;5.430;2024-02-28T09:16:37;20.90;40.50
72484;DHT22;74199;52.014;5.430;2024-02-28T09:19:05;20.90;40.50
72484;DHT22;74199;52.014;5.430;2024-02-28T09:21:33;20.90;40.50
72484;DHT22;74199;52.014;5.430;2024-02-28T09:24:00;20.90;40.50
72484;DHT22;74199;52.014;5.430;2024-02-28T09:26:28;21.00;40.50
72484;DHT22;74199;52.014;5.430;2024-02-28T09:28:55;20.90;40.50
72484;DHT22;74199;52.014;5.430;2024-02-28T09:31:22;21.00;40.50
72484;DHT22;74199;52.014;5.430;2024-02-28T09:33:49;21.00;40.60
72484;DHT22;74199;52.014;5.430;2024-02-28T09:36:16;21.00;40.60
72484;DHT22;74199;52.014;5.430;2024-02-28T09:38:43;21.00;40.50
72484;DHT22;74199;52.014;5.430;2024-02-28T09:41:14;21.00;40.60
72484;DHT22;74199;52.014;5.430;2024-02-28T09:43:42;21.00;40.50
72484;DHT22;74199;52.014;5.430;2024-02-28T09:46:09;21.00;40.60
72484;DHT22;74199;52.014;5.430;2024-02-28T09:48:43;21.00;40.60
72484;DHT22;74199;52.014;5.430;2024-02-28T09:51:15;21.00;40.70
72484;DHT22;74199;52.014;5.430;2024-02-28T09:53:43;21.00;40.60
72484;DHT22;74199;52.014;5.430;2024-02-28T09:56:11;21.00;40.70
72484;DHT22;74199;52.014;5.430;2024-02-28T09:58:39;21.00;40.70
72484;DHT22;74199;52.014;5.430;2024-02-28T10:01:08;21.00;40.80
72484;DHT22;74199;52.014;5.430;2024-02-28T10:03:36;21.00;40.80
72484;DHT22;74199;52.014;5.430;2024-02-28T10:06:05;21.00;40.80
72484;DHT22;74199;52.014;5.430;2024-02-28T10:08:33;21.00;40.70
72484;DHT22;74199;52.014;5.430;2024-02-28T10:11:04;21.00;40.70
72484;DHT22;74199;52.014;5.430;2024-02-28T10:13:32;21.00;40.70
72484;DHT22;74199;52.014;5.430;2024-02-28T10:15:59;21.00;40.90
72484;DHT22;74199;52.014;5.430;2024-02-28T10:18:26;21.00;40.80
72484;DHT22;74199;52.014;5.430;2024-02-28T10:20:53;21.00;40.80
72484;DHT22;74199;52.014;5.430;2024-02-28T10:23:20;21.00;40.80
72484;DHT22;74199;52.014;5.430;2024-02-28T10:25:47;21.00;40.90
72484;DHT22;74199;52.014;5.430;2024-02-28T10:28:23;21.00;40.80
72484;DHT22;74199;52.014;5.430;2024-02-28T10:30:51;21.00;41.00
72484;DHT22;74199;52.014;5.430;2024-02-28T10:33:19;21.00;41.00
72484;DHT22;74199;52.014;5.430;2024-02-28T10:35:50;21.00;41.10
72484;DHT22;74199;52.014;5.430;2024-02-28T10:38:18;21.00;41.20
72484;DHT22;74199;52.014;5.430;2024-02-28T10:40:46;21.00;41.20
72484;DHT22;74199;52.014;5.430;2024-02-28T10:43:16;21.00;41.30
72484;DHT22;74199;52.014;5.430;2024-02-28T10:45:43;21.00;41.40
72484;DHT22;74199;52.014;5.430;2024-02-28T10:48:30;21.00;41.40
72484;DHT22;74199;52.014;5.430;2024-02-28T10:50:58;21.00;41.50
72484;DHT22;74199;52.014;5.430;2024-02-28T10:53:36;21.00;41.50
72484;DHT22;74199;52.014;5.430;2024-02-28T10:56:05;21.00;41.50
72484;DHT22;74199;52.014;5.430;2024-02-28T10:58:36;21.00;41.60
72484;DHT22;74199;52.014;5.430;2024-02-28T11:01:05;21.00;41.70
72484;DHT22;74199;52.014;5.430;2024-02-28T11:03:32;21.00;41.70
72484;DHT22;74199;52.014;5.430;2024-02-28T11:06:00;20.90;41.70
72484;DHT22;74199;52.014;5.430;2024-02-28T11:08:27;20.90;41.90
72484;DHT22;74199;52.014;5.430;2024-02-28T11:10:59;20.90;42.00
72484;DHT22;74199;52.014;5.430;2024-02-28T11:13:29;20.90;42.00
72484;DHT22;74199;52.014;5.430;2024-02-28T11:16:07;20.90;42.10
72484;DHT22;74199;52.014;5.430;2024-02-28T11:18:35;20.90;42.20
72484;DHT22;74199;52.014;5.430;2024-02-28T11:21:02;20.90;42.30
72484;DHT22;74199;52.014;5.430;2024-02-28T11:23:37;20.90;42.40
72484;DHT22;74199;52.014;5.430;2024-02-28T11:26:04;21.00;42.50
72484;DHT22;74199;52.014;5.430;2024-02-28T11:28:31;20.90;42.50
72484;DHT22;74199;52.014;5.430;2024-02-28T11:30:58;20.90;42.50
72484;DHT22;74199;52.014;5.430;2024-02-28T11:33:25;20.90;42.50
72484;DHT22;74199;52.014;5.430;2024-02-28T11:35:56;20.90;42.50
72484;DHT22;74199;52.014;5.430;2024-02-28T11:38:26;20.90;42.60
72484;DHT22;74199;52.014;5.430;2024-02-28T11:40:54;20.90;42.60
72484;DHT22;74199;52.014;5.430;2024-02-28T11:43:22;20.90;42.60
72484;DHT22;74199;52.014;5.430;2024-02-28T11:45:49;20.90;42.60
72484;DHT22;74199;52.014;5.430;2024-02-28T11:48:16;20.90;42.60
72484;DHT22;74199;52.014;5.430;2024-02-28T11:50:43;20.90;42.70
72484;DHT22;74199;52.014;5.430;2024-02-28T11:53:10;20.90;42.70
72484;DHT22;74199;52.014;5.430;2024-02-28T11:55:37;20.90;42.70
72484;DHT22;74199;52.014;5.430;2024-02-28T11:58:08;20.90;42.80
72484;DHT22;74199;52.014;5.430;2024-02-28T12:00:49;20.90;42.70
72484;DHT22;74199;52.014;5.430;2024-02-28T12:03:21;20.90;42.70
72484;DHT22;74199;52.014;5.430;2024-02-28T12:05:49;20.90;42.80
72484;DHT22;74199;52.014;5.430;2024-02-28T12:08:19;20.90;42.70
72484;DHT22;74199;52.014;5.430;2024-02-28T12:10:47;20.90;42.80
72484;DHT22;74199;52.014;5.430;2024-02-28T12:13:18;20.90;42.70
72484;DHT22;74199;52.014;5.430;2024-02-28T12:15:45;20.90;42.70
72484;DHT22;74199;52.014;5.430;2024-02-28T12:18:15;20.90;42.90
72484;DHT22;74199;52.014;5.430;2024-02-28T12:20:42;20.90;42.90
72484;DHT22;74199;52.014;5.430;2024-02-28T12:23:09;20.90;43.00
72484;DHT22;74199;52.014;5.430;2024-02-28T12:25:36;20.90;43.10
72484;DHT22;74199;52.014;5.430;2024-02-28T12:28:05;20.90;43.20
72484;DHT22;74199;52.014;5.430;2024-02-28T12:30:40;20.90;43.20
72484;DHT22;74199;52.014;5.430;2024-02-28T12:33:11;20.90;43.40
72484;DHT22;74199;52.014;5.430;2024-02-28T12:35:40;20.90;43.40
72484;DHT22;74199;52.014;5.430;2024-02-28T12:38:09;20.90;43.50
72484;DHT22;74199;52.014;5.430;2024-02-28T12:40:36;20.90;43.60
72484;DHT22;74199;52.014;5.430;2024-02-28T12:43:03;20.80;43.70
72484;DHT22;74199;52.014;5.430;2024-02-28T12:45:30;20.80;43.70
72484;DHT22;74199;52.014;5.430;2024-02-28T12:47:58;20.80;43.80
72484;DHT22;74199;52.014;5.430;2024-02-28T12:50:25;20.80;43.80
72484;DHT22;74199;52.014;5.430;2024-02-28T12:52:52;20.80;43.90
72484;DHT22;74199;52.014;5.430;2024-02-28T12:55:22;20.80;43.90
72484;DHT22;74199;52.014;5.430;2024-02-28T12:57:49;20.80;44.00
72484;DHT22;74199;52.014;5.430;2024-02-28T13:00:16;20.80;44.00
72484;DHT22;74199;52.014;5.430;2024-02-28T13:02:44;20.80;44.00
72484;DHT22;74199;52.014;5.430;2024-02-28T13:05:12;20.80;44.10
72484;DHT22;74199;52.014;5.430;2024-02-28T13:07:42;20.80;44.10
72484;DHT22;74199;52.014;5.430;2024-02-28T13:10:09;20.80;44.20
72484;DHT22;74199;52.014;5.430;2024-02-28T13:12:37;20.80;44.30
72484;DHT22;74199;52.014;5.430;2024-02-28T13:15:06;20.80;44.30
72484;DHT22;74199;52.014;5.430;2024-02-28T13:17:34;20.80;44.20
72484;DHT22;74199;52.014;5.430;2024-02-28T13:20:01;20.80;44.20
72484;DHT22;74199;52.014;5.430;2024-02-28T13:22:30;20.80;44.40
72484;DHT22;74199;52.014;5.430;2024-02-28T13:24:57;20.80;44.40
72484;DHT22;74199;52.014;5.430;2024-02-28T13:27:24;20.80;44.50
72484;DHT22;74199;52.014;5.430;2024-02-28T13:29:50;20.80;44.50
72484;DHT22;74199;52.014;5.430;2024-02-28T13:32:17;20.80;44.60
72484;DHT22;74199;52.014;5.430;2024-02-28T13:34:44;20.80;44.60
72484;DHT22;74199;52.014;5.430;2024-02-28T13:37:15;20.80;44.60
72484;DHT22;74199;52.014;5.430;2024-02-28T13:39:42;20.80;44.70
72484;DHT22;74199;52.014;5.430;2024-02-28T13:42:09;20.80;44.80
72484;DHT22;74199;52.014;5.430;2024-02-28T13:44:36;20.80;44.70
72484;DHT22;74199;52.014;5.430;2024-02-28T13:47:03;20.80;44.90
72484;DHT22;74199;52.014;5.430;2024-02-28T13:49:30;20.80;44.90
72484;DHT22;74199;52.014;5.430;2024-02-28T13:51:57;20.80;44.90
72484;DHT22;74199;52.014;5.430;2024-02-28T13:54:24;20.80;44.90
72484;DHT22;74199;52.014;5.430;2024-02-28T13:56:51;20.80;44.90
72484;DHT22;74199;52.014;5.430;2024-02-28T13:59:18;20.80;45.00
72484;DHT22;74199;52.014;5.430;2024-02-28T14:01:45;20.80;44.90
72484;DHT22;74199;52.014;5.430;2024-02-28T14:04:12;20.80;44.90
72484;DHT22;74199;52.014;5.430;2024-02-28T14:06:39;20.80;44.90
72484;DHT22;74199;52.014;5.430;2024-02-28T14:09:06;20.80;44.90
72484;DHT22;74199;52.014;5.430;2024-02-28T14:11:33;20.80;44.90
72484;DHT22;74199;52.014;5.430;2024-02-28T14:14:00;20.80;44.90
72484;DHT22;74199;52.014;5.430;2024-02-28T14:16:28;20.80;44.90
72484;DHT22;74199;52.014;5.430;2024-02-28T14:18:56;20.80;45.00
72484;DHT22;74199;52.014;5.430;2024-02-28T14:21:23;20.80;45.00
72484;DHT22;74199;52.014;5.430;2024-02-28T14:23:51;20.80;45.10
72484;DHT22;74199;52.014;5.430;2024-02-28T14:26:18;20.80;45.00
72484;DHT22;74199;52.014;5.430;2024-02-28T14:28:45;20.70;45.10
72484;DHT22;74199;52.014;5.430;2024-02-28T14:31:12;20.70;45.10
72484;DHT22;74199;52.014;5.430;2024-02-28T14:33:39;20.80;45.00
72484;DHT22;74199;52.014;5.430;2024-02-28T14:36:06;20.70;45.10
72484;DHT22;74199;52.014;5.430;2024-02-28T14:38:33;20.70;45.10
72484;DHT22;74199;52.014;5.430;2024-02-28T14:41:00;20.70;45.10
72484;DHT22;74199;52.014;5.430;2024-02-28T14:43:27;20.70;45.10
72484;DHT22;74199;52.014;5.430;2024-02-28T14:45:56;20.70;45.10
72484;DHT22;74199;52.014;5.430;2024-02-28T14:48:23;20.70;45.00
72484;DHT22;74199;52.014;5.430;2024-02-28T14:50:50;20.70;45.00
72484;DHT22;74199;52.014;5.430;2024-02-28T14:53:17;20.70;45.00
72484;DHT22;74199;52.014;5.430;2024-02-28T14:55:46;20.70;44.80
72484;DHT22;74199;52.014;5.430;2024-02-28T14:58:14;20.70;44.90
72484;DHT22;74199;52.014;5.430;2024-02-28T15:00:41;20.70;44.90
72484;DHT22;74199;52.014;5.430;2024-02-28T15:03:09;20.70;44.90
72484;DHT22;74199;52.014;5.430;2024-02-28T15:05:36;20.70;44.90
72484;DHT22;74199;52.014;5.430;2024-02-28T15:08:03;20.70;44.80
72484;DHT22;74199;52.014;5.430;2024-02-28T15:10:30;20.70;44.80
72484;DHT22;74199;52.014;5.430;2024-02-28T15:12:57;20.60;44.90
72484;DHT22;74199;52.014;5.430;2024-02-28T15:15:24;20.60;44.80
72484;DHT22;74199;52.014;5.430;2024-02-28T15:17:51;20.60;44.80
72484;DHT22;74199;52.014;5.430;2024-02-28T15:20:19;20.60;44.80
72484;DHT22;74199;52.014;5.430;2024-02-28T15:22:47;20.60;44.80
72484;DHT22;74199;52.014;5.430;2024-02-28T15:25:13;20.60;44.80
72484;DHT22;74199;52.014;5.430;2024-02-28T15:27:40;20.60;44.80
72484;DHT22;74199;52.014;5.430;2024-02-28T15:30:08;20.60;44.80
72484;DHT22;74199;52.014;5.430;2024-02-28T15:32:36;20.60;44.80